Time;durP1;ratioP1;P1;durP2;ratioP2;P2;SDS_P1;SDS_P2;PMS_P1;PMS_P2;Temp;Humidity;BMP_temperature;BMP_pressure;BME280_temperature;BME280_humidity;BME280_pressure;Samples;Min_cycle;Max_cycle;Signal;HPM_P1;HPM_P2
2021/06/24 04:59:16;;;;;;;4.90;2.47;;;;;;;16.37;85.13;100126.53;5006255;28;105933;-67
2021/06/24 05:01:41;;;;;;;5.22;2.88;;;;;;;16.43;85.14;100128.41;5008561;28;106175;-69
2021/06/24 05:04:06;;;;;;;5.30;3.90;;;;;;;16.54;85.33;100137.69;5004351;28;105921;-70
2021/06/24 05:06:33;;;;;;;6.82;2.60;;;;;;;16.65;85.42;100144.25;5004663;28;106322;-69
2021/06/24 05:08:59;;;;;;;5.13;2.35;;;;;;;16.74;85.39;100137.63;5004821;28;106317;-69
2021/06/24 05:11:24;;;;;;;3.28;2.30;;;;;;;16.86;85.32;100119.78;5006143;28;105996;-69
2021/06/24 05:13:49;;;;;;;4.18;2.25;;;;;;;17.01;85.54;100111.47;5005365;28;106228;-68
2021/06/24 05:16:15;;;;;;;3.88;2.17;;;;;;;17.14;85.38;100115.97;5003953;28;106343;-67
2021/06/24 05:18:42;;;;;;;3.58;1.80;;;;;;;17.28;85.08;100122.09;5005075;28;105959;-68
2021/06/24 05:21:07;;;;;;;3.75;2.08;;;;;;;17.39;85.03;100110.63;5005643;28;105857;-67
2021/06/24 05:23:33;;;;;;;3.80;2.30;;;;;;;17.55;85.13;100109.28;5005182;28;105854;-67
2021/06/24 05:25:58;;;;;;;5.38;2.17;;;;;;;17.72;84.87;100100.66;5004849;28;106881;-68
2021/06/24 05:28:24;;;;;;;5.00;2.28;;;;;;;17.82;84.58;100095.59;5004927;28;105949;-68
2021/06/24 05:30:49;;;;;;;4.28;1.92;;;;;;;17.95;84.77;100097.38;5004403;28;105858;-68
2021/06/24 05:33:16;;;;;;;4.68;1.80;;;;;;;18.06;84.56;100095.84;5004843;28;106109;-68
2021/06/24 05:35:42;;;;;;;3.95;2.25;;;;;;;18.15;84.35;100093.66;5004485;28;105992;-70
2021/06/24 05:38:11;;;;;;;2.67;1.83;;;;;;;18.26;84.13;100093.75;5004483;28;106505;-68
2021/06/24 05:40:37;;;;;;;3.35;1.60;;;;;;;18.39;83.87;100098.19;5005504;28;105938;-69
2021/06/24 05:43:03;;;;;;;2.83;1.60;;;;;;;18.55;83.86;100102.16;5004817;28;106165;-70
2021/06/24 05:45:28;;;;;;;4.93;1.60;;;;;;;18.65;83.82;100088.13;5004441;28;106032;-73
2021/06/24 05:47:55;;;;;;;3.25;1.90;;;;;;;18.79;83.40;100094.19;5004574;28;105784;-75
2021/06/24 05:50:21;;;;;;;5.88;1.55;;;;;;;18.86;82.77;100097.66;5005568;28;105702;-75
2021/06/24 05:52:47;;;;;;;5.53;2.00;;;;;;;18.92;82.52;100104.03;5004943;28;105827;-76
2021/06/24 05:55:12;;;;;;;5.10;1.80;;;;;;;18.96;82.14;100107.09;5003626;28;106140;-75
2021/06/24 05:57:38;;;;;;;4.10;1.90;;;;;;;19.01;82.07;100101.84;5004326;28;106201;-73
2021/06/24 06:00:05;;;;;;;2.90;1.83;;;;;;;19.13;82.15;100100.00;5005506;28;106044;-73
2021/06/24 06:02:31;;;;;;;4.80;1.90;;;;;;;19.25;81.94;100105.47;5004299;28;106205;-74
2021/06/24 06:04:56;;;;;;;3.78;1.95;;;;;;;19.39;81.78;100103.38;5004517;28;106045;-73
2021/06/24 06:07:21;;;;;;;3.05;2.15;;;;;;;19.46;81.90;100109.50;5004317;28;106168;-73
2021/06/24 06:09:47;;;;;;;4.57;2.30;;;;;;;19.48;81.37;100118.22;4996275;28;106238;-75
2021/06/24 06:12:12;;;;;;;5.72;2.10;;;;;;;19.44;80.86;100117.03;4991180;28;105797;-73
2021/06/24 06:14:37;;;;;;;6.90;1.90;;;;;;;19.40;80.78;100107.75;4990817;28;105794;-74
2021/06/24 06:17:03;;;;;;;8.02;3.28;;;;;;;19.39;80.52;100122.28;4990268;28;106007;-74
2021/06/24 06:19:28;;;;;;;4.93;3.25;;;;;;;19.51;80.97;100125.84;4991595;28;106155;-73
2021/06/24 06:21:54;;;;;;;4.30;2.10;;;;;;;19.72;80.87;100127.19;4990889;28;106116;-70
2021/06/24 06:24:20;;;;;;;3.67;2.35;;;;;;;19.86;80.39;100127.84;4990770;28;106054;-72
2021/06/24 06:26:46;;;;;;;8.05;2.65;;;;;;;19.97;80.10;100133.47;4974143;27;105900;-73
2021/06/24 06:29:11;;;;;;;5.95;2.63;;;;;;;20.11;79.96;100137.63;4971757;28;105885;-69
2021/06/24 06:31:39;;;;;;;11.48;3.03;;;;;;;20.18;79.21;100132.91;4971311;28;106234;-69
2021/06/24 06:34:04;;;;;;;5.70;2.95;;;;;;;20.25;79.36;100130.88;4970664;28;106374;-73
2021/06/24 06:36:29;;;;;;;6.88;2.53;;;;;;;20.38;79.06;100131.72;4970654;28;106136;-70
2021/06/24 06:38:55;;;;;;;8.13;2.92;;;;;;;20.55;78.83;100121.00;4971348;28;106103;-67
2021/06/24 06:41:20;;;;;;;3.80;2.65;;;;;;;20.90;80.65;100122.81;4970918;28;106247;-66
2021/06/24 06:43:46;;;;;;;4.55;2.83;;;;;;;21.20;78.53;100109.06;4970561;28;106311;-65
2021/06/24 06:46:11;;;;;;;4.65;2.50;;;;;;;21.33;77.70;100099.78;4966964;28;106153;-67
2021/06/24 06:48:36;;;;;;;7.47;2.70;;;;;;;21.45;77.55;100097.84;4967596;28;106197;-68
2021/06/24 06:51:03;;;;;;;8.73;3.05;;;;;;;21.60;77.14;100102.72;4968256;28;106219;-67
2021/06/24 06:53:28;;;;;;;5.25;2.78;;;;;;;21.82;77.05;100107.41;4968250;28;105957;-65
2021/06/24 06:55:53;;;;;;;4.05;2.80;;;;;;;22.04;76.27;100109.38;4966680;28;107208;-66
2021/06/24 06:58:19;;;;;;;5.38;2.80;;;;;;;22.10;75.44;100119.22;4968756;28;106257;-69
2021/06/24 07:00:44;;;;;;;5.88;3.10;;;;;;;22.19;75.02;100123.16;4969338;28;106046;-68
2021/06/24 07:03:10;;;;;;;6.50;3.35;;;;;;;22.20;74.51;100138.38;4981281;28;105790;-69
2021/06/24 07:05:35;;;;;;;7.00;3.50;;;;;;;22.19;74.05;100133.19;4990193;28;105734;-65
2021/06/24 07:08:01;;;;;;;6.97;3.58;;;;;;;22.17;73.98;100138.88;4990790;28;105911;-64
2021/06/24 07:10:26;;;;;;;5.53;3.58;;;;;;;22.19;73.53;100144.06;4990025;28;106289;-64
2021/06/24 07:12:52;;;;;;;6.13;3.50;;;;;;;22.20;73.38;100143.81;4990037;28;105959;-66
2021/06/24 07:15:17;;;;;;;13.48;6.70;;;;;;;22.29;73.74;100145.03;4990069;28;105926;-67
2021/06/24 07:17:43;;;;;;;5.13;3.72;;;;;;;22.37;73.11;100143.78;4972206;28;105900;-66
2021/06/24 07:20:09;;;;;;;10.57;3.90;;;;;;;22.51;72.88;100146.97;4985148;28;106297;-65
2021/06/24 07:22:35;;;;;;;7.00;3.97;;;;;;;22.62;72.18;100151.47;4968824;28;105933;-64
2021/06/24 07:25:01;;;;;;;9.20;3.90;;;;;;;22.67;71.43;100144.47;4969622;28;105951;-64
2021/06/24 07:27:26;;;;;;;6.38;3.67;;;;;;;22.81;71.87;100146.56;4970379;28;106409;-65
2021/06/24 07:29:52;;;;;;;9.23;4.22;;;;;;;23.04;71.62;100141.13;4969752;28;106061;-66
2021/06/24 07:32:18;;;;;;;6.82;3.70;;;;;;;23.37;71.61;100133.88;4969613;28;105909;-65
2021/06/24 07:34:43;;;;;;;7.65;3.83;;;;;;;23.65;70.21;100136.31;4969497;28;106095;-67
2021/06/24 07:37:09;;;;;;;13.15;3.97;;;;;;;23.79;70.48;100142.13;4969618;28;105923;-66
2021/06/24 07:39:34;;;;;;;8.90;3.97;;;;;;;24.05;69.62;100152.44;4969215;28;106155;-66
2021/06/24 07:42:00;;;;;;;12.05;4.47;;;;;;;24.20;68.76;100141.66;4969854;28;106681;-66
2021/06/24 07:44:25;;;;;;;28.38;13.00;;;;;;;24.21;68.01;100150.63;4969561;28;106041;-67
2021/06/24 07:46:51;;;;;;;10.98;5.38;;;;;;;24.37;67.98;100146.91;4969661;28;105898;-66
2021/06/24 07:49:16;;;;;;;5.97;4.18;;;;;;;24.53;67.27;100145.09;4969632;28;106135;-65
2021/06/24 07:51:41;;;;;;;8.18;4.20;;;;;;;24.52;66.63;100146.19;4969340;28;106065;-62
2021/06/24 07:54:07;;;;;;;7.85;4.28;;;;;;;24.57;66.25;100153.56;4986513;28;106245;-63
2021/06/24 07:56:32;;;;;;;8.32;4.20;;;;;;;24.65;66.48;100148.47;4989924;28;106226;-65
2021/06/24 07:58:58;;;;;;;6.93;4.05;;;;;;;24.70;65.64;100150.41;4989110;28;106135;-64
2021/06/24 08:01:23;;;;;;;8.35;4.32;;;;;;;24.81;65.08;100143.91;4989148;28;105962;-64
2021/06/24 08:03:51;;;;;;;8.18;4.78;;;;;;;24.70;64.46;100141.41;4975851;28;106000;-65
2021/06/24 08:06:16;;;;;;;9.82;4.88;;;;;;;24.77;64.72;100144.72;4968387;28;106013;-66
2021/06/24 08:08:41;;;;;;;7.63;4.03;;;;;;;24.96;64.54;100150.47;4968182;28;106606;-64
2021/06/24 08:11:07;;;;;;;6.25;4.50;;;;;;;25.00;63.28;100163.31;4967804;28;106381;-63
2021/06/24 08:13:32;;;;;;;8.02;4.05;;;;;;;24.95;62.85;100159.78;4967773;28;106133;-63
2021/06/24 08:15:58;;;;;;;12.85;4.50;;;;;;;24.89;62.84;100160.81;4967717;28;105984;-61
2021/06/24 08:18:24;;;;;;;5.60;4.38;;;;;;;24.86;61.97;100153.19;4968013;28;106299;-61
2021/06/24 08:20:50;;;;;;;6.00;4.60;;;;;;;24.72;61.80;100155.59;4967461;28;106326;-65
2021/06/24 08:23:17;;;;;;;7.32;4.32;;;;;;;24.74;62.51;100159.69;4967479;28;106088;-61
2021/06/24 08:25:43;;;;;;;6.30;3.65;;;;;;;24.96;62.63;100158.66;4968298;28;106659;-65
2021/06/24 08:28:09;;;;;;;8.07;4.00;;;;;;;25.26;62.18;100165.28;4967308;28;106234;-64
2021/06/24 08:30:41;;;;;;;8.93;3.25;;;;;;;25.51;61.63;100162.66;4966817;28;106020;-66
2021/06/24 08:33:07;;;;;;;6.65;3.70;;;;;;;25.66;60.83;100153.66;4967102;28;106075;-63
2021/06/24 08:35:33;;;;;;;7.13;3.90;;;;;;;25.87;60.56;100153.66;4968400;28;106007;-64
2021/06/24 08:37:59;;;;;;;7.15;3.97;;;;;;;25.95;59.36;100157.78;4967818;28;106456;-66
2021/06/24 08:40:24;;;;;;;7.68;4.32;;;;;;;25.91;58.64;100153.94;4967154;28;106499;-63
2021/06/24 08:42:50;;;;;;;8.27;3.90;;;;;;;25.65;58.58;100162.94;4967489;28;106456;-67
2021/06/24 08:45:16;;;;;;;6.65;3.30;;;;;;;25.56;58.89;100166.47;4968329;28;106044;-65
2021/06/24 08:47:45;;;;;;;9.77;3.90;;;;;;;25.57;59.14;100152.56;4967408;28;106441;-67
2021/06/24 08:50:12;;;;;;;7.50;4.40;;;;;;;25.68;58.78;100151.50;4966757;28;106936;-66
2021/06/24 08:52:37;;;;;;;8.32;3.70;;;;;;;25.82;58.07;100159.13;4966769;28;106187;-66
2021/06/24 08:55:03;;;;;;;13.98;4.53;;;;;;;25.74;57.45;100156.94;4967300;28;106095;-66
2021/06/24 08:57:30;;;;;;;10.73;5.35;;;;;;;25.81;57.69;100154.78;4967471;28;106567;-64
2021/06/24 08:59:58;;;;;;;13.88;6.97;;;;;;;25.89;57.90;100156.97;4914661;28;106290;-65
2021/06/24 09:02:50;;;;;;;17.42;8.43;;;;;;;25.92;57.92;100156.41;4966885;28;106039;-61
2021/06/24 09:05:16;;;;;;;13.23;7.47;;;;;;;26.15;57.72;100159.69;4968013;28;106426;-61
2021/06/24 09:07:53;;;;;;;11.82;8.05;;;;;;;26.57;57.85;100160.41;4967009;28;106430;-62
2021/06/24 09:10:24;;;;;;;16.38;9.02;;;;;;;26.87;57.01;100158.69;4966386;28;106437;-63
2021/06/24 09:12:55;;;;;;;14.32;7.93;;;;;;;26.89;56.07;100168.25;4966310;28;106513;-63
2021/06/24 09:15:25;;;;;;;12.45;6.47;;;;;;;26.93;56.33;100152.09;4967041;28;106164;-64
2021/06/24 09:17:51;;;;;;;15.65;6.43;;;;;;;27.03;55.92;100158.34;4966806;28;106278;-65
2021/06/24 09:20:19;;;;;;;11.93;7.32;;;;;;;27.22;55.44;100165.09;4964993;28;107650;-63
2021/06/24 09:23:08;;;;;;;11.95;5.68;;;;;;;27.68;55.28;100153.84;4965896;28;106032;-62
2021/06/24 09:25:35;;;;;;;10.80;5.70;;;;;;;28.40;54.08;100153.22;4967269;28;106051;-65
2021/06/24 09:28:01;;;;;;;7.07;5.15;;;;;;;29.12;52.97;100154.28;4966345;28;106169;-65
2021/06/24 09:30:31;;;;;;;6.35;4.57;;;;;;;29.81;51.56;100151.88;4966642;28;106059;-65
2021/06/24 09:33:06;;;;;;;8.88;4.85;;;;;;;30.15;49.76;100152.69;4966787;28;106599;-66
2021/06/24 09:35:31;;;;;;;17.17;4.85;;;;;;;30.32;48.90;100152.09;4966692;28;106381;-69
2021/06/24 09:38:14;;;;;;;18.50;6.65;;;;;;;30.70;48.65;100150.00;4966520;28;105931;-66
2021/06/24 09:40:54;;;;;;;14.77;6.10;;;;;;;31.01;47.09;100157.59;4965064;28;106278;-65
2021/06/24 09:43:23;;;;;;;9.15;6.32;;;;;;;30.85;45.80;100154.38;4966746;28;106074;-68
2021/06/24 09:46:20;;;;;;;10.43;5.88;;;;;;;30.56;46.18;100157.44;4970211;28;106023;-65
2021/06/24 09:48:52;;;;;;;12.35;5.95;;;;;;;30.51;46.45;100160.28;4970245;28;106054;-65
2021/06/24 09:51:21;;;;;;;10.60;5.80;;;;;;;30.78;45.97;100148.44;4953330;28;106637;-72
2021/06/24 09:53:51;;;;;;;10.48;5.43;;;;;;;30.78;45.42;100159.44;4949997;28;106212;-71
2021/06/24 09:56:27;;;;;;;10.43;6.80;;;;;;;30.98;45.25;100166.47;4950649;28;106086;-69
2021/06/24 09:58:55;;;;;;;13.05;6.55;;;;;;;31.32;44.80;100161.63;4949850;28;106164;-69
2021/06/24 10:01:40;;;;;;;12.38;5.65;;;;;;;31.61;44.09;100165.94;4949727;28;105896;-72
2021/06/24 10:04:24;;;;;;;8.80;5.13;;;;;;;31.95;43.49;100170.84;4968308;28;106535;-71
2021/06/24 10:06:52;;;;;;;17.38;7.93;;;;;;;32.13;42.59;100168.19;4970153;28;105939;-71
2021/06/24 10:09:18;;;;;;;13.57;8.75;;;;;;;32.29;41.79;100155.66;4968003;28;106322;-71
2021/06/24 10:11:45;;;;;;;14.80;8.25;;;;;;;32.16;41.37;100156.56;4969094;28;106103;-74
2021/06/24 10:14:11;;;;;;;10.88;6.22;;;;;;;32.19;41.85;100150.41;4964946;27;106306;-74
2021/06/24 10:16:36;;;;;;;13.40;5.80;;;;;;;32.40;41.47;100150.69;4969005;28;106451;-71
2021/06/24 10:19:04;;;;;;;10.32;5.63;;;;;;;32.44;40.71;100153.59;4969371;28;106434;-73
2021/06/24 10:21:32;;;;;;;9.18;6.35;;;;;;;32.74;40.48;100149.19;4969099;28;106548;-70
2021/06/24 10:24:06;;;;;;;10.75;5.53;;;;;;;32.71;40.39;100142.38;4969048;28;106172;-71
2021/06/24 10:26:32;;;;;;;9.57;4.95;;;;;;;32.52;40.31;100144.53;4970043;28;105975;-75
2021/06/24 10:29:19;;;;;;;12.88;5.78;;;;;;;32.26;39.96;100139.78;4968873;28;107671;-71
2021/06/24 10:31:55;;;;;;;9.95;5.18;;;;;;;32.14;40.89;100147.78;4969193;28;106063;-71
2021/06/24 10:34:21;;;;;;;10.20;4.75;;;;;;;32.05;40.46;100145.81;4968631;28;106068;-70
2021/06/24 10:37:13;;;;;;;12.07;5.25;;;;;;;32.06;40.71;100141.91;4969845;28;106186;-79
2021/06/24 10:39:41;;;;;;;9.43;5.05;;;;;;;32.53;40.69;100133.22;4968561;28;106320;-71
2021/06/24 10:42:09;;;;;;;4.90;3.50;;;;;;;32.30;39.60;100129.75;4968667;28;106575;-68
2021/06/24 10:44:48;;;;;;;7.55;4.80;;;;;;;32.33;39.97;100134.59;4968283;28;106322;-69
2021/06/24 10:47:14;;;;;;;7.32;3.40;;;;;;;32.30;39.85;100128.91;4969850;28;106409;-65
2021/06/24 10:49:40;;;;;;;5.68;3.70;;;;;;;32.13;39.40;100124.13;4968730;28;106165;-69
2021/06/24 10:52:25;;;;;;;4.35;3.30;;;;;;;32.04;39.63;100127.66;4968442;28;106186;-70
2021/06/24 10:54:50;;;;;;;7.22;2.83;;;;;;;32.03;40.29;100131.53;4968055;28;106492;-66
2021/06/24 10:57:37;;;;;;;5.13;2.78;;;;;;;32.21;39.61;100123.38;4969150;28;106063;-67
2021/06/24 11:00:40;;;;;;;7.20;3.50;;;;;;;32.27;38.85;100119.31;4951083;28;107224;-68
2021/06/24 11:03:09;;;;;;;5.00;2.60;;;;;;;32.44;39.08;100117.75;4960927;28;105949;-71
2021/06/24 11:05:43;;;;;;;6.23;3.03;;;;;;;32.68;39.42;100115.41;4969761;28;106376;-70
2021/06/24 11:08:13;;;;;;;6.07;3.83;;;;;;;32.45;38.00;100111.13;4970693;28;105819;-68
2021/06/24 11:10:55;;;;;;;;;;;;;;;32.15;39.63;100119.94;4969424;28;106321;-68
2021/06/24 11:13:39;;;;;;;7.13;3.63;;;;;;;32.46;39.41;100116.31;4969892;28;107165;-70
2021/06/24 11:16:15;;;;;;;7.28;3.50;;;;;;;32.78;39.42;100117.09;4969363;28;106385;-63
2021/06/24 11:18:40;;;;;;;9.65;4.07;;;;;;;32.87;38.77;100117.09;4970300;28;106181;-64
2021/06/24 11:21:08;;;;;;;9.48;4.00;;;;;;;32.93;38.28;100115.81;4969666;28;106230;-63
2021/06/24 11:23:40;;;;;;;5.15;3.60;;;;;;;33.15;38.49;100114.84;4969483;28;106922;-63
2021/06/24 11:26:06;;;;;;;6.85;3.65;;;;;;;33.29;37.30;100114.72;4969501;28;106403;-64
2021/06/24 11:28:49;;;;;;;8.98;3.60;;;;;;;33.10;37.77;100122.47;4970280;28;105973;-65
2021/06/24 11:31:17;;;;;;;4.88;2.72;;;;;;;32.95;37.65;100121.81;4970092;28;105924;-65
2021/06/24 11:33:57;;;;;;;6.18;4.20;;;;;;;32.81;37.51;100121.16;4969435;28;105801;-64
2021/06/24 11:36:23;;;;;;;6.53;3.22;;;;;;;32.49;37.43;100126.72;4969369;28;106214;-63
2021/06/24 11:38:50;;;;;;;6.95;3.15;;;;;;;32.24;37.82;100117.22;4970186;28;105806;-63
2021/06/24 11:41:17;;;;;;;7.55;3.42;;;;;;;32.00;38.11;100123.91;4969720;28;106214;-63
2021/06/24 11:44:04;;;;;;;6.57;3.40;;;;;;;32.53;39.06;100121.38;4969324;28;106646;-64
2021/06/24 11:46:36;;;;;;;5.63;3.13;;;;;;;32.94;37.60;100109.13;4968940;28;106130;-64
2021/06/24 12:05:05;;;;;;;7.57;3.60;;;;;;;33.90;35.18;100113.78;4968921;28;105969;-64
2021/06/24 12:07:34;;;;;;;6.70;4.75;;;;;;;33.55;34.84;100103.63;4968407;28;105906;-61
2021/06/24 12:09:59;;;;;;;;;;;;;;;33.21;35.88;100102.50;4969794;28;106066;-63
2021/06/24 12:12:26;;;;;;;7.55;3.25;;;;;;;32.97;36.70;100091.97;4968905;28;106242;-63
2021/06/24 12:14:57;;;;;;;8.65;3.50;;;;;;;32.46;36.46;100088.75;4968446;28;106079;-62
2021/06/24 12:17:31;;;;;;;5.43;3.10;;;;;;;32.10;36.77;100094.44;4968619;28;105969;-64
2021/06/24 12:20:04;;;;;;;5.88;3.60;;;;;;;32.37;37.06;100085.97;4969726;28;105976;-63
2021/06/24 12:22:32;;;;;;;6.60;3.50;;;;;;;32.21;36.56;100082.03;4968760;28;106385;-64
2021/06/24 12:25:00;;;;;;;4.78;3.20;;;;;;;31.97;36.76;100094.22;4968273;28;105913;-65
2021/06/24 12:27:33;;;;;;;5.95;3.45;;;;;;;31.73;37.08;100095.41;4968339;28;105981;-64
2021/06/24 12:30:05;;;;;;;5.50;3.20;;;;;;;31.78;37.44;100088.97;4969009;28;105858;-64
2021/06/24 12:32:30;;;;;;;6.10;2.88;;;;;;;32.00;37.54;100093.59;4968373;28;106320;-64
2021/06/24 12:34:57;;;;;;;4.82;3.35;;;;;;;32.05;36.42;100095.38;4966551;28;106080;-67
2021/06/24 12:37:31;;;;;;;4.90;3.00;;;;;;;32.06;36.77;100100.56;4967807;28;105884;-60
2021/06/24 12:39:58;;;;;;;7.18;3.60;;;;;;;32.26;36.32;100103.94;4968815;28;105972;-64
2021/06/24 12:42:23;;;;;;;5.35;3.50;;;;;;;32.42;36.65;100106.25;4968182;28;106309;-61
2021/06/24 12:44:49;;;;;;;5.97;3.85;;;;;;;32.54;36.13;100100.94;4968130;28;105729;-61
2021/06/24 12:47:37;;;;;;;6.03;3.15;;;;;;;32.67;36.33;100101.94;4968475;28;105829;-60
2021/06/24 12:50:13;;;;;;;3.85;3.00;;;;;;;32.92;35.89;100102.31;4968817;28;105901;-64
2021/06/24 12:52:55;;;;;;;5.43;3.13;;;;;;;32.71;35.15;100103.78;4968520;28;106178;-65
2021/06/24 12:55:38;;;;;;;5.32;3.75;;;;;;;32.53;35.70;100104.81;4968549;28;106130;-63
2021/06/24 12:58:12;;;;;;;5.18;3.70;;;;;;;32.35;35.95;100099.25;4967983;28;106104;-64
2021/06/24 13:00:39;;;;;;;5.70;3.70;;;;;;;32.46;36.56;100101.72;4969021;28;105861;-62
